createdAt,value
2018-04-19T00:00:01.588Z,1004.78
2018-04-19T00:01:01.735Z,1004.75
2018-04-19T00:02:01.864Z,1004.73
2018-04-19T00:03:02.012Z,1004.75
2018-04-19T00:04:02.178Z,1004.75
2018-04-19T00:05:02.315Z,1004.76
2018-04-19T00:06:02.452Z,1004.76
2018-04-19T00:07:02.605Z,1004.79
2018-04-19T00:08:02.743Z,1004.70
2018-04-19T00:09:02.888Z,1004.70
2018-04-19T00:10:03.020Z,1004.70
2018-04-19T00:11:03.161Z,1004.71
2018-04-19T00:12:03.307Z,1004.70
2018-04-19T00:13:03.448Z,1004.67
2018-04-19T00:14:03.592Z,1004.70
2018-04-19T00:15:03.726Z,1004.71
2018-04-19T00:16:03.945Z,1004.71
2018-04-19T00:17:03.965Z,1004.75
2018-04-19T00:18:04.100Z,1004.70
2018-04-19T00:19:04.247Z,1004.70
2018-04-19T00:20:04.383Z,1004.68
2018-04-19T00:21:04.518Z,1004.70
2018-04-19T00:22:04.657Z,1004.71
2018-04-19T00:23:04.802Z,1004.72
2018-04-19T00:24:04.947Z,1004.69
2018-04-19T00:25:05.090Z,1004.72
2018-04-19T00:26:05.228Z,1004.70
2018-04-19T00:27:05.368Z,1004.71
2018-04-19T00:28:05.516Z,1004.70
2018-04-19T00:29:05.655Z,1004.69
2018-04-19T00:30:05.801Z,1004.67
2018-04-19T00:31:05.978Z,1004.73
2018-04-19T00:32:06.108Z,1004.73
2018-04-19T00:33:06.244Z,1004.75
2018-04-19T00:34:06.392Z,1004.73
2018-04-19T00:35:06.535Z,1004.74
2018-04-19T00:36:06.675Z,1004.72
2018-04-19T00:37:06.810Z,1004.70
2018-04-19T00:38:06.953Z,1004.70
2018-04-19T00:39:07.095Z,1004.73
2018-04-19T00:40:07.230Z,1004.68
2018-04-19T00:41:07.377Z,1004.69
2018-04-19T00:42:07.519Z,1004.70
2018-04-19T00:43:07.663Z,1004.65
2018-04-19T00:44:07.802Z,1004.67
2018-04-19T00:45:07.945Z,1004.71
2018-04-19T00:46:08.087Z,1004.71
2018-04-19T00:47:08.221Z,1004.70
2018-04-19T00:48:08.356Z,1004.72
2018-04-19T00:49:08.495Z,1004.69
2018-04-19T00:50:08.635Z,1004.68
2018-04-19T00:51:08.786Z,1004.67
2018-04-19T00:52:08.938Z,1004.66
2018-04-19T00:53:09.073Z,1004.66
2018-04-19T00:54:09.215Z,1004.68
2018-04-19T00:55:09.355Z,1004.68
2018-04-19T00:56:09.491Z,1004.67
2018-04-19T00:57:09.628Z,1004.64
2018-04-19T00:58:09.773Z,1004.65
2018-04-19T00:59:09.915Z,1004.64
2018-04-19T01:00:11.034Z,1004.61
2018-04-19T01:01:10.176Z,1004.59
2018-04-19T01:02:10.314Z,1004.60
2018-04-19T01:03:10.494Z,1004.65
2018-04-19T01:04:10.633Z,1004.64
2018-04-19T01:05:10.766Z,1004.62
2018-04-19T01:06:10.907Z,1004.62
2018-04-19T01:07:11.045Z,1004.64
2018-04-19T01:08:11.183Z,1004.63
2018-04-19T01:09:11.320Z,1004.66
2018-04-19T01:10:11.459Z,1004.61
2018-04-19T01:11:11.597Z,1004.62
2018-04-19T01:12:11.734Z,1004.65
2018-04-19T01:13:11.877Z,1004.62
2018-04-19T01:14:12.014Z,1004.64
2018-04-19T01:15:12.156Z,1004.64
2018-04-19T01:16:12.292Z,1004.61
2018-04-19T01:17:12.436Z,1004.68
2018-04-19T01:18:12.572Z,1004.68
2018-04-19T01:19:12.718Z,1004.63
2018-04-19T01:20:12.857Z,1004.64
2018-04-19T01:21:13.008Z,1004.61
2018-04-19T01:22:13.148Z,1004.66
2018-04-19T01:23:13.291Z,1004.64
2018-04-19T01:24:13.432Z,1004.64
2018-04-19T01:25:13.575Z,1004.67
2018-04-19T01:26:13.708Z,1004.65
2018-04-19T01:27:13.853Z,1004.64
2018-04-19T01:28:13.995Z,1004.64
2018-04-19T01:29:14.133Z,1004.68
2018-04-19T01:30:14.267Z,1004.69
2018-04-19T01:31:14.407Z,1004.65
2018-04-19T01:32:14.546Z,1004.66
2018-04-19T01:33:14.685Z,1004.66
2018-04-19T01:34:14.823Z,1004.67
2018-04-19T01:35:14.972Z,1004.65
2018-04-19T01:36:15.112Z,1004.63
2018-04-19T01:37:15.244Z,1004.67
2018-04-19T01:38:15.381Z,1004.65
2018-04-19T01:39:15.520Z,1004.62
2018-04-19T01:40:15.660Z,1004.59
2018-04-19T01:41:15.796Z,1004.63
2018-04-19T01:42:15.932Z,1004.63
2018-04-19T01:43:16.071Z,1004.65
2018-04-19T01:44:16.264Z,1004.64
2018-04-19T01:45:16.402Z,1004.65
2018-04-19T01:46:16.542Z,1004.64
2018-04-19T01:47:16.682Z,1004.63
2018-04-19T01:48:16.820Z,1004.63
2018-04-19T01:49:16.958Z,1004.59
2018-04-19T01:50:17.101Z,1004.62
2018-04-19T01:51:17.235Z,1004.59
2018-04-19T01:52:17.377Z,1004.58
2018-04-19T01:53:17.516Z,1004.66
2018-04-19T01:54:17.656Z,1004.64
2018-04-19T01:55:17.808Z,1004.64
2018-04-19T01:56:17.943Z,1004.64
2018-04-19T01:57:18.085Z,1004.63
2018-04-19T01:58:18.226Z,1004.64
2018-04-19T01:59:18.369Z,1004.64
2018-04-19T02:00:18.505Z,1004.65
2018-04-19T02:01:18.645Z,1004.62
2018-04-19T02:02:18.803Z,1004.64
2018-04-19T02:03:18.938Z,1004.64
2018-04-19T02:04:19.082Z,1004.67
2018-04-19T02:05:19.216Z,1004.70
2018-04-19T02:06:19.388Z,1004.68
2018-04-19T02:07:19.515Z,1004.68
2018-04-19T02:08:19.656Z,1004.73
2018-04-19T02:09:19.792Z,1004.68
2018-04-19T02:10:19.929Z,1004.71
2018-04-19T02:11:20.067Z,1004.69
2018-04-19T02:12:20.204Z,1004.70
2018-04-19T02:13:20.344Z,1004.70
2018-04-19T02:14:20.487Z,1004.69
2018-04-19T02:15:20.627Z,1004.77
2018-04-19T02:16:20.769Z,1004.73
2018-04-19T02:17:20.904Z,1004.79
2018-04-19T02:18:21.042Z,1004.78
2018-04-19T02:19:21.182Z,1004.76
2018-04-19T02:20:21.322Z,1004.78
2018-04-19T02:21:21.460Z,1004.81
2018-04-19T02:22:21.599Z,1004.78
2018-04-19T02:23:21.737Z,1004.76
2018-04-19T02:24:21.871Z,1004.77
2018-04-19T02:25:22.011Z,1004.74
2018-04-19T02:26:22.152Z,1004.74
2018-04-19T02:27:22.296Z,1004.76
2018-04-19T02:28:22.434Z,1004.73
2018-04-19T02:29:22.573Z,1004.70
2018-04-19T02:30:22.710Z,1004.68
2018-04-19T02:31:22.846Z,1004.68
2018-04-19T02:32:22.987Z,1004.66
2018-04-19T02:33:23.122Z,1004.63
2018-04-19T02:34:23.271Z,1004.66
2018-04-19T02:35:23.404Z,1004.67
2018-04-19T02:36:23.545Z,1004.66
2018-04-19T02:37:23.684Z,1004.67
2018-04-19T02:38:23.828Z,1004.65
2018-04-19T02:39:23.968Z,1004.68
2018-04-19T02:40:24.151Z,1004.65
2018-04-19T02:41:24.289Z,1004.65
2018-04-19T02:42:24.422Z,1004.63
2018-04-19T02:43:24.568Z,1004.61
2018-04-19T02:44:24.705Z,1004.62
2018-04-19T02:45:24.845Z,1004.57
2018-04-19T02:46:24.987Z,1004.59
2018-04-19T02:47:25.211Z,1004.59
2018-04-19T02:48:25.226Z,1004.59
2018-04-19T02:49:25.364Z,1004.57
2018-04-19T02:50:25.575Z,1004.56
2018-04-19T02:51:25.657Z,1004.57
2018-04-19T02:52:25.801Z,1004.56
2018-04-19T02:53:25.937Z,1004.57
2018-04-19T02:54:26.075Z,1004.56
2018-04-19T02:55:26.217Z,1004.58
2018-04-19T02:56:26.356Z,1004.56
2018-04-19T02:57:26.489Z,1004.55
2018-04-19T02:58:26.631Z,1004.55
2018-04-19T02:59:26.769Z,1004.54
2018-04-19T03:00:26.914Z,1004.53
2018-04-19T03:01:27.048Z,1004.54
2018-04-19T03:02:27.184Z,1004.56
2018-04-19T03:03:27.322Z,1004.54
2018-04-19T03:04:27.461Z,1004.50
2018-04-19T03:05:27.600Z,1004.47
2018-04-19T03:06:27.796Z,1004.47
2018-04-19T03:07:27.935Z,1004.49
2018-04-19T03:08:28.113Z,1004.46
2018-04-19T03:09:28.256Z,1004.45
2018-04-19T03:10:28.393Z,1004.38
2018-04-19T03:11:28.535Z,1004.39
2018-04-19T03:12:28.707Z,1004.38
2018-04-19T03:13:28.810Z,1004.41
2018-04-19T03:14:28.951Z,1004.41
2018-04-19T03:15:29.084Z,1004.41
2018-04-19T03:16:29.227Z,1004.38
2018-04-19T03:17:29.363Z,1004.35
2018-04-19T03:18:29.505Z,1004.32
2018-04-19T03:19:29.646Z,1004.32
2018-04-19T03:20:29.835Z,1004.33
2018-04-19T03:21:29.922Z,1004.33
2018-04-19T03:22:30.059Z,1004.32
2018-04-19T03:23:30.197Z,1004.32
2018-04-19T03:24:30.346Z,1004.32
2018-04-19T03:25:30.477Z,1004.35
2018-04-19T03:26:30.614Z,1004.34
2018-04-19T03:27:30.758Z,1004.31
2018-04-19T03:28:30.895Z,1004.28
2018-04-19T03:29:31.035Z,1004.26
2018-04-19T03:30:31.181Z,1004.26
2018-04-19T03:31:31.329Z,1004.23
2018-04-19T03:32:31.507Z,1004.25
2018-04-19T03:33:31.624Z,1004.25
2018-04-19T03:34:31.762Z,1004.22
2018-04-19T03:35:31.959Z,1004.25
2018-04-19T03:36:32.064Z,1004.23
2018-04-19T03:37:32.204Z,1004.28
2018-04-19T03:38:32.363Z,1004.22
2018-04-19T03:39:32.522Z,1004.27
2018-04-19T03:40:32.664Z,1004.23
2018-04-19T03:41:32.798Z,1004.22
2018-04-19T03:42:32.956Z,1004.26
2018-04-19T03:43:33.091Z,1004.20
2018-04-19T03:44:33.230Z,1004.17
2018-04-19T03:45:33.369Z,1004.22
2018-04-19T03:46:33.510Z,1004.21
2018-04-19T03:47:33.651Z,1004.24
2018-04-19T03:48:33.868Z,1004.25
2018-04-19T03:49:33.963Z,1004.20
2018-04-19T03:50:34.096Z,1004.26
2018-04-19T03:51:34.272Z,1004.21
2018-04-19T03:52:34.411Z,1004.23
2018-04-19T03:53:34.553Z,1004.23
2018-04-19T03:54:34.693Z,1004.21
2018-04-19T03:55:34.831Z,1004.19
2018-04-19T03:56:34.971Z,1004.18
2018-04-19T03:57:35.116Z,1004.17
2018-04-19T03:58:35.251Z,1004.17
2018-04-19T03:59:35.388Z,1004.15
2018-04-19T04:00:35.532Z,1004.18
2018-04-19T04:01:35.672Z,1004.20
2018-04-19T04:02:35.812Z,1004.11
2018-04-19T04:03:35.950Z,1004.21
2018-04-19T04:04:36.083Z,1004.18
2018-04-19T04:05:36.224Z,1004.24
2018-04-19T04:06:36.364Z,1004.19
2018-04-19T04:07:36.507Z,1004.16
2018-04-19T04:08:36.649Z,1004.16
2018-04-19T04:09:36.838Z,1004.17
2018-04-19T04:10:36.922Z,1004.12
2018-04-19T04:11:37.061Z,1004.14
2018-04-19T04:12:37.201Z,1004.10
2018-04-19T04:13:37.335Z,1004.15
2018-04-19T04:14:37.482Z,1004.14
2018-04-19T04:15:37.620Z,1004.11
2018-04-19T04:16:37.758Z,1004.11
2018-04-19T04:17:37.895Z,1004.12
2018-04-19T04:18:38.034Z,1004.05
2018-04-19T04:19:38.202Z,1004.05
2018-04-19T04:20:38.335Z,1004.03
2018-04-19T04:21:38.471Z,1004.02
2018-04-19T04:22:38.610Z,1004.07
2018-04-19T04:23:38.771Z,1004.13
2018-04-19T04:24:38.902Z,1004.10
2018-04-19T04:25:39.035Z,1004.09
2018-04-19T04:26:39.178Z,1004.10
2018-04-19T04:27:39.341Z,1004.10
2018-04-19T04:28:39.480Z,1004.10
2018-04-19T04:29:39.619Z,1004.09
2018-04-19T04:30:39.785Z,1004.11
2018-04-19T04:31:39.916Z,1004.09
2018-04-19T04:32:40.051Z,1004.01
2018-04-19T04:33:40.198Z,1004.04
2018-04-19T04:34:40.354Z,1004.10
2018-04-19T04:35:40.485Z,1004.07
2018-04-19T04:36:40.621Z,1004.07
2018-04-19T04:37:40.779Z,1004.05
2018-04-19T04:38:40.920Z,1004.03
2018-04-19T04:39:41.064Z,1004.05
2018-04-19T04:40:41.200Z,1004.03
2018-04-19T04:41:41.349Z,1004.06
2018-04-19T04:42:41.508Z,1004.08
2018-04-19T04:43:41.646Z,1004.06
2018-04-19T04:44:41.787Z,1004.07
2018-04-19T04:45:41.925Z,1004.06
2018-04-19T04:46:42.062Z,1004.10
2018-04-19T04:47:43.116Z,1004.14
2018-04-19T04:48:42.277Z,1004.11
2018-04-19T04:49:42.413Z,1004.16
2018-04-19T04:50:43.114Z,1004.11
2018-04-19T04:53:14.746Z,1004.15
2018-04-19T04:54:14.877Z,1004.09
2018-04-19T04:55:15.016Z,1004.15
2018-04-19T04:56:15.160Z,1004.14
2018-04-19T04:57:15.293Z,1004.15
2018-04-19T04:58:15.428Z,1004.15
2018-04-19T04:59:15.561Z,1004.16
2018-04-19T05:00:15.703Z,1004.10
2018-04-19T05:01:15.845Z,1004.10
2018-04-19T05:02:15.984Z,1004.03
2018-04-19T05:03:16.121Z,1004.05
2018-04-19T05:04:16.265Z,1004.02
2018-04-19T05:05:16.435Z,1003.98
2018-04-19T05:06:16.572Z,1004.02
2018-04-19T05:07:16.711Z,1003.97
2018-04-19T05:08:16.846Z,1004.04
2018-04-19T05:09:17.053Z,1004.01
2018-04-19T05:10:17.145Z,1004.02
2018-04-19T05:11:17.281Z,1004.03
2018-04-19T05:12:17.441Z,1004.04
2018-04-19T05:13:17.575Z,1004.02
2018-04-19T05:14:17.716Z,1004.02
2018-04-19T05:15:17.850Z,1003.99
2018-04-19T05:16:18.014Z,1004.05
2018-04-19T05:17:18.148Z,1004.06
2018-04-19T05:18:18.293Z,1004.11
2018-04-19T05:19:18.454Z,1004.05
2018-04-19T05:20:18.615Z,1004.05
2018-04-19T05:21:18.726Z,1004.09
2018-04-19T05:22:18.871Z,1004.06
2018-04-19T05:23:19.033Z,1004.09
2018-04-19T05:24:19.165Z,1004.08
2018-04-19T05:25:19.307Z,1004.07
2018-04-19T05:26:19.540Z,1004.09
2018-04-19T05:27:19.581Z,1004.06
2018-04-19T05:28:19.728Z,1004.09
2018-04-19T05:29:19.859Z,1004.12
2018-04-19T05:30:19.993Z,1004.14
2018-04-19T05:31:20.133Z,1004.09
2018-04-19T05:32:20.273Z,1004.12
2018-04-19T05:33:20.409Z,1004.14
2018-04-19T05:34:20.548Z,1004.15
2018-04-19T05:35:20.686Z,1004.17
2018-04-19T05:36:20.824Z,1004.17
2018-04-19T05:37:20.963Z,1004.19
2018-04-19T05:38:21.100Z,1004.19
2018-04-19T05:39:21.237Z,1004.20
2018-04-19T05:40:21.379Z,1004.20
2018-04-19T05:41:21.512Z,1004.20
2018-04-19T05:42:21.658Z,1004.23
2018-04-19T05:43:21.798Z,1004.17
2018-04-19T05:44:21.939Z,1004.17
2018-04-19T05:45:22.089Z,1004.16
2018-04-19T05:46:22.233Z,1004.18
2018-04-19T05:47:22.368Z,1004.16
2018-04-19T05:48:22.510Z,1004.23
2018-04-19T05:49:22.665Z,1004.21
2018-04-19T05:50:22.807Z,1004.21
2018-04-19T05:51:22.946Z,1004.22
2018-04-19T05:52:23.086Z,1004.24
2018-04-19T05:53:23.222Z,1004.24
2018-04-19T05:54:23.382Z,1004.24
2018-04-19T05:55:23.498Z,1004.30
2018-04-19T05:56:23.635Z,1004.30
2018-04-19T05:57:23.775Z,1004.27
2018-04-19T05:58:23.909Z,1004.28
2018-04-19T05:59:24.049Z,1004.27
2018-04-19T06:00:24.188Z,1004.27
2018-04-19T06:01:24.331Z,1004.27
2018-04-19T06:02:24.467Z,1004.28
2018-04-19T06:03:24.609Z,1004.25
2018-04-19T06:04:24.757Z,1004.22
2018-04-19T06:05:24.895Z,1004.28
2018-04-19T06:06:25.034Z,1004.26
2018-04-19T06:07:25.177Z,1004.27
2018-04-19T06:08:25.316Z,1004.24
2018-04-19T06:09:25.455Z,1004.27
2018-04-19T06:10:25.593Z,1004.31
2018-04-19T06:11:25.729Z,1004.28
2018-04-19T06:12:25.877Z,1004.29
2018-04-19T06:13:26.010Z,1004.27
2018-04-19T06:14:26.169Z,1004.28
2018-04-19T06:15:26.310Z,1004.25
2018-04-19T06:16:26.444Z,1004.29
2018-04-19T06:17:26.582Z,1004.25
2018-04-19T06:18:26.730Z,1004.29
2018-04-19T06:19:26.866Z,1004.24
2018-04-19T06:20:27.003Z,1004.23
2018-04-19T06:21:27.139Z,1004.24
2018-04-19T06:22:27.311Z,1004.24
2018-04-19T06:23:27.441Z,1004.26
2018-04-19T06:24:27.581Z,1004.25
2018-04-19T06:25:27.722Z,1004.28
2018-04-19T06:26:27.862Z,1004.28
2018-04-19T06:27:28.022Z,1004.25
2018-04-19T06:28:28.158Z,1004.27
2018-04-19T06:29:28.298Z,1004.32
2018-04-19T06:30:28.490Z,1004.29
2018-04-19T06:31:28.627Z,1004.30
2018-04-19T06:32:28.764Z,1004.29
2018-04-19T06:33:28.911Z,1004.31
2018-04-19T06:34:29.051Z,1004.30
2018-04-19T06:35:29.189Z,1004.28
2018-04-19T06:36:29.343Z,1004.30
2018-04-19T06:37:29.476Z,1004.30
2018-04-19T06:38:29.631Z,1004.34
2018-04-19T06:39:29.765Z,1004.33
2018-04-19T06:40:29.912Z,1004.33
2018-04-19T06:41:30.089Z,1004.31
2018-04-19T06:42:30.202Z,1004.32
2018-04-19T06:43:30.349Z,1004.29
2018-04-19T06:44:30.490Z,1004.33
2018-04-19T06:45:30.625Z,1004.32
2018-04-19T06:46:30.780Z,1004.34
2018-04-19T06:47:30.915Z,1004.35
2018-04-19T06:48:31.054Z,1004.34
2018-04-19T06:49:31.196Z,1004.30
2018-04-19T06:50:31.358Z,1004.29
2018-04-19T06:51:31.476Z,1004.30
2018-04-19T06:52:31.618Z,1004.29
2018-04-19T06:53:31.799Z,1004.30
2018-04-19T06:54:31.928Z,1004.31
2018-04-19T06:55:32.072Z,1004.29
2018-04-19T06:56:32.236Z,1004.30
2018-04-19T06:57:32.380Z,1004.27
2018-04-19T06:58:32.517Z,1004.30
2018-04-19T06:59:32.659Z,1004.30
2018-04-19T07:00:32.811Z,1004.31
2018-04-19T07:01:32.948Z,1004.30
2018-04-19T07:02:33.095Z,1004.31
2018-04-19T07:03:33.232Z,1004.32
2018-04-19T07:04:33.380Z,1004.33
2018-04-19T07:05:33.520Z,1004.33
2018-04-19T07:06:33.671Z,1004.36
2018-04-19T07:07:33.796Z,1004.35
2018-04-19T07:08:33.934Z,1004.37
2018-04-19T07:09:34.075Z,1004.39
2018-04-19T07:10:34.213Z,1004.35
2018-04-19T07:11:34.360Z,1004.41
2018-04-19T07:12:34.499Z,1004.42
2018-04-19T07:13:34.649Z,1004.36
2018-04-19T07:14:34.788Z,1004.38
2018-04-19T07:15:34.928Z,1004.39
2018-04-19T07:16:35.064Z,1004.35
2018-04-19T07:17:35.205Z,1004.36
2018-04-19T07:18:35.342Z,1004.37
2018-04-19T07:19:35.479Z,1004.38
2018-04-19T07:20:35.620Z,1004.39
2018-04-19T07:21:35.761Z,1004.38
2018-04-19T07:22:35.904Z,1004.33
2018-04-19T07:23:36.045Z,1004.37
2018-04-19T07:24:36.191Z,1004.31
2018-04-19T07:25:36.329Z,1004.32
2018-04-19T07:26:36.466Z,1004.28
2018-04-19T07:27:36.608Z,1004.31
2018-04-19T07:28:36.751Z,1004.31
2018-04-19T07:29:36.887Z,1004.30
2018-04-19T07:30:37.031Z,1004.28
2018-04-19T07:31:37.173Z,1004.30
2018-04-19T07:32:37.313Z,1004.33
2018-04-19T07:33:37.449Z,1004.28
2018-04-19T07:34:37.592Z,1004.30
2018-04-19T07:35:37.731Z,1004.30
2018-04-19T07:36:37.873Z,1004.27
2018-04-19T07:37:38.010Z,1004.30
2018-04-19T07:38:38.154Z,1004.28
2018-04-19T07:39:38.313Z,1004.28
2018-04-19T07:40:38.460Z,1004.27
2018-04-19T07:41:38.600Z,1004.27
2018-04-19T07:42:38.744Z,1004.28
2018-04-19T07:43:38.894Z,1004.26
2018-04-19T07:44:39.029Z,1004.30
2018-04-19T07:45:39.170Z,1004.31
2018-04-19T07:46:39.312Z,1004.33
2018-04-19T07:47:39.502Z,1004.29
2018-04-19T07:48:39.612Z,1004.32
2018-04-19T07:49:39.749Z,1004.30
2018-04-19T07:50:39.927Z,1004.34
2018-04-19T07:51:40.077Z,1004.32
2018-04-19T07:52:40.206Z,1004.32
2018-04-19T07:53:40.368Z,1004.31
2018-04-19T07:54:40.529Z,1004.30
2018-04-19T07:55:40.659Z,1004.26
2018-04-19T07:56:40.805Z,1004.26
2018-04-19T07:57:40.949Z,1004.23
2018-04-19T07:58:41.098Z,1004.26
2018-04-19T07:59:41.237Z,1004.29
2018-04-19T08:00:41.372Z,1004.29
2018-04-19T08:01:41.513Z,1004.29
2018-04-19T08:02:41.662Z,1004.31
2018-04-19T08:03:41.797Z,1004.24
2018-04-19T08:04:41.952Z,1004.25
2018-04-19T08:05:42.103Z,1004.25
2018-04-19T08:06:42.251Z,1004.28
2018-04-19T08:07:42.391Z,1004.28
2018-04-19T08:08:42.548Z,1004.27
2018-04-19T08:09:42.688Z,1004.29
2018-04-19T08:10:42.867Z,1004.30
2018-04-19T08:11:42.991Z,1004.29
2018-04-19T08:12:43.131Z,1004.33
2018-04-19T08:13:43.303Z,1004.34
2018-04-19T08:14:43.447Z,1004.33
2018-04-19T08:15:43.586Z,1004.29
2018-04-19T08:16:43.728Z,1004.34
2018-04-19T08:17:43.915Z,1004.28
2018-04-19T08:18:44.053Z,1004.25
2018-04-19T08:19:44.187Z,1004.27
2018-04-19T08:20:44.336Z,1004.23
2018-04-19T08:21:44.470Z,1004.26
2018-04-19T08:22:44.610Z,1004.28
2018-04-19T08:23:44.753Z,1004.26
2018-04-19T08:24:44.891Z,1004.23
2018-04-19T08:25:45.035Z,1004.23
2018-04-19T08:26:45.171Z,1004.24
2018-04-19T08:27:45.316Z,1004.25
2018-04-19T08:28:45.458Z,1004.25
2018-04-19T08:29:45.628Z,1004.28
2018-04-19T08:30:45.773Z,1004.27
2018-04-19T08:31:45.903Z,1004.30
2018-04-19T08:32:46.060Z,1004.32
2018-04-19T08:33:46.198Z,1004.28
2018-04-19T08:34:46.340Z,1004.29
2018-04-19T08:35:46.529Z,1004.32
2018-04-19T08:36:46.671Z,1004.28
2018-04-19T08:37:46.823Z,1004.25
2018-04-19T08:38:46.984Z,1004.23
2018-04-19T08:39:47.126Z,1004.23
2018-04-19T08:40:47.267Z,1004.29
2018-04-19T08:41:47.418Z,1004.24
2018-04-19T08:42:47.564Z,1004.25
2018-04-19T08:43:47.701Z,1004.24
2018-04-19T08:44:47.890Z,1004.26
2018-04-19T08:45:48.034Z,1004.23
2018-04-19T08:46:48.178Z,1004.26
2018-04-19T08:47:48.319Z,1004.25
2018-04-19T08:48:48.461Z,1004.24
2018-04-19T08:49:48.592Z,1004.25
2018-04-19T08:50:48.740Z,1004.24
2018-04-19T08:51:48.893Z,1004.23
2018-04-19T08:52:49.041Z,1004.23
2018-04-19T08:53:49.184Z,1004.25
2018-04-19T08:54:49.323Z,1004.23
2018-04-19T08:55:49.464Z,1004.20
2018-04-19T08:56:49.607Z,1004.23
2018-04-19T08:57:49.744Z,1004.23
2018-04-19T08:58:49.894Z,1004.22
2018-04-19T08:59:50.079Z,1004.23
2018-04-19T09:00:50.220Z,1004.23
2018-04-19T09:01:50.358Z,1004.21
2018-04-19T09:02:50.526Z,1004.19
2018-04-19T09:03:50.727Z,1004.15
2018-04-19T09:04:50.832Z,1004.15
2018-04-19T09:05:50.974Z,1004.16
2018-04-19T09:06:51.122Z,1004.15
2018-04-19T09:07:51.262Z,1004.18
2018-04-19T09:08:51.408Z,1004.15
2018-04-19T09:09:51.546Z,1004.18
2018-04-19T09:10:51.696Z,1004.16
2018-04-19T09:11:51.851Z,1004.15
2018-04-19T09:12:51.999Z,1004.13
2018-04-19T09:13:52.135Z,1004.14
2018-04-19T09:14:52.301Z,1004.09
2018-04-19T09:15:52.444Z,1004.11
2018-04-19T09:16:52.581Z,1004.11
2018-04-19T09:17:52.724Z,1004.08
2018-04-19T09:18:52.873Z,1004.09
2018-04-19T09:19:53.003Z,1004.09
2018-04-19T09:20:53.143Z,1004.08
2018-04-19T09:21:53.296Z,1004.08
2018-04-19T09:22:53.434Z,1004.07
2018-04-19T09:23:53.577Z,1004.09
2018-04-19T09:24:53.721Z,1004.05
2018-04-19T09:25:53.885Z,1004.06
2018-04-19T09:26:54.066Z,1004.07
2018-04-19T09:27:54.219Z,1004.03
2018-04-19T09:28:54.356Z,1004.05
2018-04-19T09:29:54.535Z,1004.09
2018-04-19T09:30:54.672Z,1004.05
2018-04-19T09:31:54.815Z,1004.05
2018-04-19T09:32:54.956Z,1004.03
2018-04-19T09:33:55.106Z,1003.97
2018-04-19T09:34:55.242Z,1003.99
2018-04-19T09:35:55.391Z,1003.99
2018-04-19T09:36:55.541Z,1004.01
2018-04-19T09:37:55.691Z,1003.98
2018-04-19T09:38:55.825Z,1004.01
2018-04-19T09:39:55.973Z,1003.98
2018-04-19T09:40:56.145Z,1004.02
2018-04-19T09:41:56.272Z,1003.97
2018-04-19T09:42:56.417Z,1004.01
2018-04-19T09:43:56.558Z,1003.95
2018-04-19T09:44:56.702Z,1003.94
2018-04-19T09:45:56.847Z,1003.97
2018-04-19T09:46:56.983Z,1003.95
2018-04-19T09:47:57.135Z,1003.93
2018-04-19T09:48:57.275Z,1003.90
2018-04-19T09:49:57.423Z,1003.90
2018-04-19T09:50:57.567Z,1003.86
2018-04-19T09:51:57.746Z,1003.87
2018-04-19T09:52:57.858Z,1003.93
2018-04-19T09:53:58.903Z,1003.90
2018-04-19T09:54:58.121Z,1003.87
2018-04-19T09:55:58.275Z,1003.86
2018-04-19T09:56:58.478Z,1003.84
2018-04-19T09:57:58.498Z,1003.83
2018-04-19T09:58:58.638Z,1003.77
2018-04-19T09:59:58.779Z,1003.83
2018-04-19T10:00:58.917Z,1003.79
2018-04-19T10:01:59.064Z,1003.82
2018-04-19T10:02:59.197Z,1003.80
2018-04-19T10:03:59.346Z,1003.77
2018-04-19T10:04:59.482Z,1003.88
2018-04-19T10:05:59.627Z,1003.78
2018-04-19T10:06:59.774Z,1003.76
2018-04-19T10:07:59.912Z,1003.74
2018-04-19T10:09:00.083Z,1003.74
2018-04-19T10:10:00.198Z,1003.74
2018-04-19T10:11:00.346Z,1003.71
2018-04-19T10:12:00.489Z,1003.78
2018-04-19T10:13:00.630Z,1003.71
2018-04-19T10:14:00.777Z,1003.72
2018-04-19T10:15:00.922Z,1003.68
2018-04-19T10:16:01.086Z,1003.67
2018-04-19T10:17:01.210Z,1003.68
2018-04-19T10:18:01.358Z,1003.66
2018-04-19T10:19:01.507Z,1003.64
2018-04-19T10:20:01.642Z,1003.64
2018-04-19T10:21:01.787Z,1003.62
2018-04-19T10:22:01.925Z,1003.66
2018-04-19T10:23:02.060Z,1003.58
2018-04-19T10:24:02.211Z,1003.57
2018-04-19T10:25:02.352Z,1003.55
2018-04-19T10:26:02.517Z,1003.56
2018-04-19T10:27:02.649Z,1003.55
2018-04-19T10:28:02.790Z,1003.52
2018-04-19T10:29:03.080Z,1003.50
2018-04-19T10:30:03.105Z,1003.53
2018-04-19T10:31:03.249Z,1003.51
2018-04-19T10:32:03.410Z,1003.48
2018-04-19T10:33:03.543Z,1003.53
2018-04-19T10:34:03.692Z,1003.52
2018-04-19T10:35:03.831Z,1003.48
2018-04-19T10:36:03.997Z,1003.56
2018-04-19T10:37:04.121Z,1003.56
2018-04-19T10:38:04.272Z,1003.52
2018-04-19T10:39:04.412Z,1003.46
2018-04-19T10:40:04.578Z,1003.55
2018-04-19T10:41:04.719Z,1003.67
2018-04-19T10:42:04.865Z,1003.60
2018-04-19T10:43:05.009Z,1003.68
2018-04-19T10:44:05.183Z,1003.71
2018-04-19T10:45:05.328Z,1003.63
2018-04-19T10:46:05.481Z,1003.97
2018-04-19T10:47:05.653Z,1003.87
2018-04-19T10:48:05.790Z,1003.97
2018-04-19T10:49:05.930Z,1003.70
2018-04-19T10:50:06.076Z,1003.79
2018-04-19T10:51:06.219Z,1003.63
2018-04-19T10:52:06.379Z,1003.75
2018-04-19T10:53:06.535Z,1003.87
2018-04-19T10:54:06.701Z,1003.91
2018-04-19T10:55:06.832Z,1003.83
2018-04-19T10:56:06.980Z,1003.76
2018-04-19T10:57:07.127Z,1003.64
2018-04-19T10:58:07.270Z,1003.57
2018-04-19T10:59:07.445Z,1003.88
2018-04-19T11:00:07.592Z,1003.99
2018-04-19T11:01:07.741Z,1003.96
2018-04-19T11:02:07.887Z,1003.87
2018-04-19T11:03:08.052Z,1003.91
2018-04-19T11:04:08.187Z,1003.95
2018-04-19T11:05:08.336Z,1003.96
2018-04-19T11:06:08.495Z,1003.97
2018-04-19T11:07:08.637Z,1004.00
2018-04-19T11:08:08.790Z,1003.95
2018-04-19T11:09:08.938Z,1003.95
2018-04-19T11:10:09.088Z,1003.90
2018-04-19T11:11:09.235Z,1003.89
2018-04-19T11:12:09.386Z,1003.87
2018-04-19T11:13:09.529Z,1003.81
2018-04-19T11:14:09.682Z,1003.61
2018-04-19T11:15:09.840Z,1003.67
2018-04-19T11:16:09.985Z,1003.68
2018-04-19T11:17:10.131Z,1003.79
2018-04-19T11:18:10.282Z,1003.67
2018-04-19T11:19:10.432Z,1003.63
2018-04-19T11:20:10.582Z,1003.62
2018-04-19T11:21:10.729Z,1003.65
2018-04-19T11:22:10.877Z,1003.68
2018-04-19T11:23:11.032Z,1003.70
2018-04-19T11:24:11.188Z,1003.72
2018-04-19T11:25:11.329Z,1003.64
2018-04-19T11:26:11.478Z,1003.67
2018-04-19T11:27:11.647Z,1003.68
2018-04-19T11:28:11.832Z,1003.68
2018-04-19T11:29:11.979Z,1003.69
2018-04-19T11:30:12.175Z,1003.70
2018-04-19T11:31:12.355Z,1003.69
2018-04-19T11:32:12.484Z,1003.66
2018-04-19T11:33:12.631Z,1003.67
2018-04-19T11:34:12.782Z,1003.59
2018-04-19T11:35:12.938Z,1003.65
2018-04-19T11:36:13.090Z,1003.65
2018-04-19T11:37:13.239Z,1003.67
2018-04-19T11:38:13.391Z,1003.60
2018-04-19T11:39:13.548Z,1003.61
2018-04-19T11:40:13.705Z,1003.62
2018-04-19T11:41:13.862Z,1003.65
2018-04-19T11:42:14.015Z,1003.62
2018-04-19T11:43:14.175Z,1003.59
2018-04-19T11:44:14.319Z,1003.64
2018-04-19T11:45:14.477Z,1003.61
2018-04-19T11:46:14.628Z,1003.57
2018-04-19T11:47:14.806Z,1003.52
2018-04-19T11:48:14.958Z,1003.50
2018-04-19T11:49:15.121Z,1003.47
2018-04-19T11:50:15.273Z,1003.45
2018-04-19T11:51:15.432Z,1003.45
2018-04-19T11:52:15.579Z,1003.42
2018-04-19T11:53:15.734Z,1003.41
2018-04-19T11:54:15.886Z,1003.38
2018-04-19T11:55:16.064Z,1003.37
2018-04-19T11:56:16.217Z,1003.38
2018-04-19T11:57:16.390Z,1003.37
2018-04-19T11:58:16.576Z,1003.34
2018-04-19T11:59:16.738Z,1003.29
2018-04-19T12:00:16.910Z,1003.34
2018-04-19T12:01:17.057Z,1003.31
2018-04-19T12:02:17.251Z,1003.33
2018-04-19T12:03:17.400Z,1003.27
2018-04-19T12:04:17.553Z,1003.31
2018-04-19T12:05:17.720Z,1003.28
2018-04-19T12:06:17.871Z,1003.25
2018-04-19T12:07:18.065Z,1003.26
2018-04-19T12:08:18.224Z,1003.27